Time,TemperatureF,DewpointF,PressureIn,WindDirection,WindDirectionDegrees,WindSpeedMPH,WindSpeedGustMPH,Humidity,HourlyPrecipIn,Conditions,Clouds,dailyrainin,SolarRadiationWatts/m^2,SoftwareType,DateUTC
2013-07-16 00:01:00,69.0,63.0,-100.00,NE,51,0.0,2.0,80,0.00,,,0.00,0.000000,,2013-07-16 04:01:00,
2013-07-16 13:43:00,89.0,59.0,-100.00,SW,223,10.0,16.0,36,-99.99,,,0.00,809.000000,,2013-07-16 17:43:00,
2013-07-16 13:53:00,89.0,59.0,-100.00,SW,223,10.0,16.0,36,-99.99,,,0.00,809.000000,,2013-07-16 17:53:00,
2013-07-16 14:01:00,89.0,59.0,-100.00,SW,223,10.0,16.0,36,-99.99,,,0.00,809.000000,,2013-07-16 18:01:00,
2013-07-16 14:33:00,90.0,59.0,-100.00,SW,229,10.0,17.0,36,0.00,,,0.00,843.000000,,2013-07-16 18:33:00,
2013-07-16 14:43:00,90.0,59.0,-100.00,SW,229,10.0,17.0,36,0.00,,,0.00,843.000000,,2013-07-16 18:43:00,
2013-07-16 14:53:00,90.0,59.0,-100.00,SW,229,10.0,17.0,36,0.00,,,0.00,843.000000,,2013-07-16 18:53:00,
2013-07-16 15:01:00,90.0,59.0,-100.00,SW,229,10.0,17.0,36,0.00,,,0.00,843.000000,,2013-07-16 19:01:00,
2013-07-16 15:32:00,90.0,61.0,-100.00,SW,228,10.0,19.0,38,0.00,,,0.00,886.000000,,2013-07-16 19:32:00,
2013-07-16 15:43:00,90.0,61.0,-100.00,SW,228,10.0,19.0,38,0.00,,,0.00,886.000000,,2013-07-16 19:43:00,
2013-07-16 15:52:00,90.0,61.0,-100.00,SW,228,10.0,19.0,38,0.00,,,0.00,886.000000,,2013-07-16 19:52:00,
2013-07-16 16:03:00,90.0,61.0,-100.00,SW,228,10.0,19.0,38,0.00,,,0.00,886.000000,,2013-07-16 20:03:00,
2013-07-16 16:32:00,89.0,65.0,-100.00,SW,223,12.0,20.0,45,0.00,,,0.00,833.000000,,2013-07-16 20:32:00,
2013-07-16 16:43:00,89.0,65.0,-100.00,SW,223,12.0,20.0,45,0.00,,,0.00,833.000000,,2013-07-16 20:43:00,
2013-07-16 16:52:00,89.0,65.0,-100.00,SW,223,12.0,20.0,45,0.00,,,0.00,833.000000,,2013-07-16 20:52:00,
2013-07-16 17:01:00,89.0,65.0,-100.00,SW,223,12.0,20.0,45,0.00,,,0.00,833.000000,,2013-07-16 21:01:00,
2013-07-16 17:32:00,85.0,66.0,-100.00,WSW,246,9.0,20.0,54,0.00,,,0.00,435.000000,,2013-07-16 21:32:00,
2013-07-16 17:43:00,85.0,66.0,-100.00,WSW,246,9.0,20.0,54,0.00,,,0.00,435.000000,,2013-07-16 21:43:00,
2013-07-16 17:52:00,85.0,66.0,-100.00,WSW,246,9.0,20.0,54,0.00,,,0.00,435.000000,,2013-07-16 21:52:00,
2013-07-16 18:01:00,85.0,66.0,-100.00,WSW,246,9.0,20.0,54,0.00,,,0.00,435.000000,,2013-07-16 22:01:00,
2013-07-16 18:43:00,82.0,68.0,-100.00,WSW,237,8.0,15.0,63,0.00,,,0.00,40.000000,,2013-07-16 22:43:00,
2013-07-16 18:52:00,82.0,68.0,-100.00,WSW,237,8.0,15.0,63,0.00,,,0.00,40.000000,,2013-07-16 22:52:00,
2013-07-16 19:01:00,82.0,68.0,-100.00,WSW,237,8.0,15.0,63,0.00,,,0.00,40.000000,,2013-07-16 23:01:00,
2013-07-16 19:32:00,83.0,72.0,-100.00,WSW,240,9.0,16.0,69,0.00,,,0.00,217.000000,,2013-07-16 23:32:00,
2013-07-16 19:43:00,83.0,72.0,-100.00,WSW,240,9.0,16.0,69,0.00,,,0.00,217.000000,,2013-07-16 23:43:00,
2013-07-16 19:52:00,83.0,72.0,-100.00,WSW,240,9.0,16.0,69,0.00,,,0.00,217.000000,,2013-07-16 23:52:00,
2013-07-16 20:01:00,83.0,72.0,-100.00,WSW,240,9.0,16.0,69,0.00,,,0.00,217.000000,,2013-07-17 00:01:00,
2013-07-16 20:33:00,83.0,69.0,-100.00,WSW,244,11.0,17.0,63,0.00,,,0.00,176.000000,,2013-07-17 00:33:00,
2013-07-16 20:42:00,83.0,69.0,-100.00,WSW,244,11.0,17.0,63,0.00,,,0.00,176.000000,,2013-07-17 00:42:00,
2013-07-16 20:52:00,83.0,69.0,-100.00,WSW,244,11.0,17.0,63,0.00,,,0.00,176.000000,,2013-07-17 00:52:00,
2013-07-16 21:01:00,83.0,69.0,-100.00,WSW,244,11.0,17.0,63,0.00,,,0.00,176.000000,,2013-07-17 01:01:00,
2013-07-16 21:32:00,80.0,69.0,-100.00,SW,233,11.0,17.0,69,0.00,,,0.00,24.000000,,2013-07-17 01:32:00,
2013-07-16 21:43:00,80.0,69.0,-100.00,SW,233,11.0,17.0,69,0.00,,,0.00,24.000000,,2013-07-17 01:43:00,
2013-07-16 21:53:00,80.0,69.0,-100.00,SW,233,11.0,17.0,69,0.00,,,0.00,24.000000,,2013-07-17 01:53:00,
2013-07-16 22:01:00,80.0,69.0,-100.00,SW,233,11.0,17.0,69,0.00,,,0.00,24.000000,,2013-07-17 02:01:00,
2013-07-16 22:32:00,77.0,70.0,-100.00,WSW,242,8.0,16.0,78,0.00,,,0.00,8.000000,,2013-07-17 02:32:00,
2013-07-16 22:43:00,77.0,70.0,-100.00,WSW,242,8.0,16.0,78,0.00,,,0.00,8.000000,,2013-07-17 02:43:00,
2013-07-16 22:53:00,77.0,70.0,-100.00,WSW,242,8.0,16.0,78,0.00,,,0.00,8.000000,,2013-07-17 02:53:00,
2013-07-16 23:01:00,77.0,70.0,-100.00,WSW,242,8.0,16.0,78,0.00,,,0.00,8.000000,,2013-07-17 03:01:00,
2013-07-16 23:32:00,76.0,69.0,-100.00,WSW,248,10.0,16.0,78,0.00,,,0.00,0.000000,,2013-07-17 03:32:00,
2013-07-16 23:43:00,76.0,69.0,-100.00,WSW,248,10.0,16.0,78,0.00,,,0.00,0.000000,,2013-07-17 03:43:00,
2013-07-16 23:53:00,76.0,69.0,-100.00,WSW,248,10.0,16.0,78,0.00,,,0.00,0.000000,,2013-07-17 03:53:00,